createdAt,value
2023-04-16T00:03:40.707Z,97464.94
2023-04-16T00:08:43.603Z,97462.97
2023-04-16T00:13:44.846Z,97463.94
2023-04-16T00:18:46.670Z,97459.63
2023-04-16T00:23:48.033Z,97461.19
2023-04-16T00:28:49.926Z,97449.91
2023-04-16T00:33:51.211Z,97439.16
2023-04-16T00:38:52.515Z,97433.91
2023-04-16T00:43:53.798Z,97443.03
2023-04-16T00:48:55.087Z,97437.75
2023-04-16T00:53:56.343Z,97427.56
2023-04-16T00:58:57.607Z,97433.16
2023-04-16T01:03:58.933Z,97434.81
2023-04-16T01:09:00.647Z,97433.56
2023-04-16T01:14:01.915Z,97438.69
2023-04-16T01:19:03.521Z,97433.03
2023-04-16T01:24:04.797Z,97434.69
2023-04-16T01:29:06.481Z,97444.84
2023-04-16T01:34:07.901Z,97439.28
2023-04-16T01:39:11.566Z,97450.53
2023-04-16T01:44:12.846Z,97453.50
2023-04-16T01:49:14.307Z,97461.09
2023-04-16T01:54:15.675Z,97461.41
2023-04-16T01:59:16.901Z,97460.06
2023-04-16T02:04:18.153Z,97450.84
2023-04-16T02:09:19.377Z,97467.06
2023-04-16T02:14:21.969Z,97461.72
2023-04-16T02:19:23.204Z,97470.03
2023-04-16T02:24:24.418Z,97476.09
2023-04-16T02:29:25.670Z,97474.44
2023-04-16T02:34:26.988Z,97478.59
2023-04-16T02:39:28.297Z,97477.22
2023-04-16T02:44:29.598Z,97477.34
2023-04-16T02:49:31.076Z,97478.63
2023-04-16T02:54:32.326Z,97486.13
2023-04-16T02:59:33.635Z,97487.34
2023-04-16T03:04:34.988Z,97477.31
2023-04-16T03:09:36.556Z,97476.78
2023-04-16T03:14:37.782Z,97482.09
2023-04-16T03:19:39.005Z,97484.47
2023-04-16T03:24:40.243Z,97491.00
2023-04-16T03:29:41.551Z,97498.97
2023-04-16T03:34:42.804Z,97496.31
2023-04-16T03:39:44.065Z,97503.84
2023-04-16T03:44:45.304Z,97506.91
2023-04-16T03:49:46.572Z,97503.44
2023-04-16T03:54:47.868Z,97507.84
2023-04-16T03:59:49.069Z,97512.19
2023-04-16T04:04:50.307Z,97515.69
2023-04-16T04:09:51.587Z,97529.56
2023-04-16T04:14:52.843Z,97535.31
2023-04-16T04:20:01.326Z,97540.19
2023-04-16T04:25:03.091Z,97543.56
2023-04-16T04:30:07.472Z,97539.84
2023-04-16T04:35:08.736Z,97549.19
2023-04-16T04:40:10.081Z,97558.09
2023-04-16T04:45:11.625Z,97556.22
2023-04-16T04:50:12.922Z,97563.38
2023-04-16T04:55:15.858Z,97570.56
2023-04-16T05:00:17.081Z,97571.97
2023-04-16T05:05:18.432Z,97570.03
2023-04-16T05:10:19.683Z,97579.19
2023-04-16T05:15:21.038Z,97575.66
2023-04-16T05:20:22.827Z,97584.53
2023-04-16T05:25:24.079Z,97580.06
2023-04-16T05:30:25.525Z,97589.13
2023-04-16T05:35:26.787Z,97591.22
2023-04-16T05:40:28.007Z,97605.59
2023-04-16T05:45:29.430Z,97606.78
2023-04-16T05:50:30.786Z,97604.63
2023-04-16T05:55:32.046Z,97609.09
2023-04-16T06:00:33.300Z,97610.66
2023-04-16T06:05:34.769Z,97613.13
2023-04-16T06:10:36.011Z,97617.41
2023-04-16T06:15:37.266Z,97610.59
2023-04-16T06:20:38.544Z,97617.00
2023-04-16T06:25:39.796Z,97611.31
2023-04-16T06:30:42.805Z,97610.09
2023-04-16T06:35:45.701Z,97609.66
2023-04-16T06:40:46.973Z,97619.34
2023-04-16T06:45:48.261Z,97620.59
2023-04-16T06:50:49.518Z,97617.94
2023-04-16T06:55:50.809Z,97620.81
2023-04-16T07:00:52.213Z,97618.03
2023-04-16T07:05:53.475Z,97616.97
2023-04-16T07:10:54.821Z,97615.38
2023-04-16T07:15:56.109Z,97614.13
2023-04-16T07:20:57.352Z,97616.41
2023-04-16T07:25:58.671Z,97613.97
2023-04-16T07:30:59.952Z,97616.56
2023-04-16T07:36:01.177Z,97612.16
2023-04-16T07:41:02.377Z,97623.19
2023-04-16T07:46:03.652Z,97612.78
2023-04-16T07:51:04.875Z,97618.91
2023-04-16T07:56:06.106Z,97609.00
2023-04-16T08:01:07.379Z,97613.28
2023-04-16T08:06:08.604Z,97613.28
2023-04-16T08:11:10.125Z,97616.31
2023-04-16T08:16:11.764Z,97621.47
2023-04-16T08:21:13.030Z,97632.78
2023-04-16T08:26:14.301Z,97646.41
2023-04-16T08:31:15.868Z,97649.97
2023-04-16T08:36:17.136Z,97660.22
2023-04-16T08:41:18.410Z,97673.78
2023-04-16T08:46:19.667Z,97679.06
2023-04-16T08:51:21.025Z,97686.69
2023-04-16T08:56:22.273Z,97681.66
2023-04-16T09:01:23.604Z,97686.34
2023-04-16T09:06:24.904Z,97677.09
2023-04-16T09:11:26.325Z,97684.44
2023-04-16T09:16:27.593Z,97688.09
2023-04-16T09:21:28.886Z,97683.84
2023-04-16T09:26:30.148Z,97683.66
2023-04-16T09:31:31.778Z,97689.09
2023-04-16T09:36:33.017Z,97677.50
2023-04-16T09:41:36.252Z,97685.69
2023-04-16T09:46:37.669Z,97681.00
2023-04-16T09:51:39.114Z,97677.97
2023-04-16T09:56:40.489Z,97664.81
2023-04-16T10:01:41.899Z,97660.72
2023-04-16T10:06:43.279Z,97660.84
2023-04-16T10:11:44.572Z,97658.00
2023-04-16T10:16:46.033Z,97666.41
2023-04-16T10:21:47.263Z,97646.44
2023-04-16T10:26:48.545Z,97637.09
2023-04-16T10:31:49.773Z,97638.28
2023-04-16T10:36:52.450Z,97650.06
2023-04-16T10:41:53.703Z,97651.66
2023-04-16T10:46:55.133Z,97646.06
2023-04-16T10:51:56.674Z,97647.31
2023-04-16T10:56:57.952Z,97641.97
2023-04-16T11:01:59.225Z,97648.81
2023-04-16T11:07:00.946Z,97646.22
2023-04-16T11:12:02.178Z,97644.03
2023-04-16T11:17:03.432Z,97647.34
2023-04-16T11:22:04.673Z,97642.50
2023-04-16T11:27:05.930Z,97644.69
2023-04-16T11:32:07.150Z,97656.25
2023-04-16T11:37:08.399Z,97643.38
2023-04-16T11:42:09.660Z,97649.19
2023-04-16T11:47:13.710Z,97650.94
2023-04-16T11:52:15.283Z,97648.53
2023-04-16T11:57:16.662Z,97650.59
2023-04-16T12:02:17.977Z,97646.53
2023-04-16T12:07:19.419Z,97656.50
2023-04-16T12:12:21.100Z,97659.03
2023-04-16T12:17:22.321Z,97661.28
2023-04-16T12:22:23.618Z,97664.94
2023-04-16T12:27:28.496Z,97659.69
2023-04-16T12:32:31.997Z,97655.66
2023-04-16T12:37:33.509Z,97660.13
2023-04-16T12:42:37.847Z,97649.59
2023-04-16T12:47:39.166Z,97646.31
2023-04-16T12:52:40.466Z,97641.50
2023-04-16T12:57:41.871Z,97634.31
2023-04-16T13:02:43.293Z,97647.75
2023-04-16T13:07:44.840Z,97652.13
2023-04-16T13:12:46.554Z,97652.22
2023-04-16T13:17:47.906Z,97655.41
2023-04-16T13:22:49.188Z,97654.00
2023-04-16T13:27:50.500Z,97653.03
2023-04-16T13:32:51.804Z,97660.53
2023-04-16T13:37:53.087Z,97659.47
2023-04-16T13:42:54.303Z,97681.69
2023-04-16T13:47:56.278Z,97685.84
2023-04-16T13:52:57.615Z,97678.97
2023-04-16T13:57:58.822Z,97681.22
2023-04-16T14:03:00.649Z,97686.31
2023-04-16T14:08:02.099Z,97690.56
2023-04-16T14:13:03.362Z,97682.75
2023-04-16T14:18:04.645Z,97686.22
2023-04-16T14:23:05.969Z,97679.75
2023-04-16T14:28:07.202Z,97680.84
2023-04-16T14:33:08.457Z,97676.66
2023-04-16T14:38:09.796Z,97674.94
2023-04-16T14:43:11.298Z,97666.16
2023-04-16T14:48:12.555Z,97668.41
2023-04-16T14:53:13.835Z,97656.38
2023-04-16T14:58:15.573Z,97675.88
2023-04-16T15:03:17.087Z,97693.59
2023-04-16T15:08:18.425Z,97710.53
2023-04-16T15:13:19.755Z,97711.50
2023-04-16T15:18:21.301Z,97723.38
2023-04-16T15:23:22.642Z,97728.97
2023-04-16T15:28:24.000Z,97744.25
2023-04-16T15:33:26.332Z,97750.78
2023-04-16T15:38:29.786Z,97760.59
2023-04-16T15:43:31.204Z,97758.44
2023-04-16T15:48:32.474Z,97777.38
2023-04-16T15:53:33.699Z,97772.72
2023-04-16T15:58:34.915Z,97788.06
2023-04-16T16:03:36.479Z,97782.00
2023-04-16T16:08:38.423Z,97783.00
2023-04-16T16:13:39.809Z,97794.56
2023-04-16T16:18:42.903Z,97796.66
2023-04-16T16:23:44.149Z,97800.84
2023-04-16T16:28:45.896Z,97807.81
2023-04-16T16:33:47.347Z,97808.34
2023-04-16T16:38:48.604Z,97798.41
2023-04-16T16:43:51.310Z,97801.47
2023-04-16T16:48:52.643Z,97805.59
2023-04-16T16:53:53.908Z,97802.91
2023-04-16T16:58:55.248Z,97784.22
2023-04-16T17:03:57.117Z,97774.69
2023-04-16T17:08:58.397Z,97773.00
2023-04-16T17:13:59.692Z,97774.41
2023-04-16T17:19:01.298Z,97775.69
2023-04-16T17:24:02.558Z,97775.19
2023-04-16T17:29:04.483Z,97780.34
2023-04-16T17:34:06.281Z,97789.16
2023-04-16T17:39:07.623Z,97794.19
2023-04-16T17:44:11.144Z,97804.06
2023-04-16T17:49:13.086Z,97811.25
2023-04-16T17:54:14.424Z,97814.59
2023-04-16T17:59:15.793Z,97814.75
2023-04-16T18:04:17.518Z,97834.25
2023-04-16T18:09:19.578Z,97830.03
2023-04-16T18:14:21.480Z,97848.91
2023-04-16T18:19:22.748Z,97861.59
2023-04-16T18:24:23.978Z,97879.16
2023-04-16T18:29:25.703Z,97887.00
2023-04-16T18:34:29.590Z,97896.84
2023-04-16T18:39:31.352Z,97905.97
2023-04-16T18:44:32.596Z,97903.72
2023-04-16T18:49:33.865Z,97906.19
2023-04-16T18:54:36.547Z,97910.91
2023-04-16T18:59:37.945Z,97925.38
2023-04-16T19:04:39.222Z,97929.53
2023-04-16T19:09:40.552Z,97938.47
2023-04-16T19:14:41.873Z,97938.47
2023-04-16T19:19:43.092Z,97939.66
2023-04-16T19:24:44.338Z,97950.31
2023-04-16T19:29:46.683Z,97951.66
2023-04-16T19:34:47.897Z,97954.78
2023-04-16T19:39:49.174Z,97960.75
2023-04-16T19:44:50.497Z,97973.19
2023-04-16T19:49:51.739Z,97984.97
2023-04-16T19:54:53.128Z,97980.81
2023-04-16T19:59:55.154Z,97996.50
2023-04-16T20:04:56.460Z,97992.19
2023-04-16T20:09:57.700Z,98005.53
2023-04-16T20:14:58.988Z,98000.19
2023-04-16T20:20:01.399Z,98004.47
2023-04-16T20:25:03.480Z,97993.75
2023-04-16T20:30:06.014Z,98000.09
2023-04-16T20:35:10.590Z,98000.66
2023-04-16T20:40:13.827Z,97990.50
2023-04-16T20:45:15.569Z,97985.69
2023-04-16T20:50:17.181Z,97995.91
2023-04-16T20:55:18.459Z,97993.00
2023-04-16T21:00:19.782Z,98000.19
2023-04-16T21:05:21.437Z,98000.53
2023-04-16T21:10:22.678Z,98001.97
2023-04-16T21:15:23.983Z,98003.84
2023-04-16T21:20:25.222Z,98010.25
2023-04-16T21:25:26.500Z,98010.81
2023-04-16T21:30:27.823Z,98002.81
2023-04-16T21:35:29.104Z,98008.38
2023-04-16T21:40:30.336Z,98018.47
2023-04-16T21:45:31.733Z,98017.03
2023-04-16T21:50:33.052Z,98016.69
2023-04-16T21:55:34.886Z,98016.59
2023-04-16T22:00:36.297Z,98012.84
2023-04-16T22:05:37.636Z,98012.84
2023-04-16T22:10:39.980Z,98011.28
2023-04-16T22:15:41.332Z,98008.97
2023-04-16T22:20:42.530Z,97998.63
2023-04-16T22:25:43.820Z,97996.25
2023-04-16T22:30:45.272Z,97998.50
2023-04-16T22:35:46.527Z,97991.22
2023-04-16T22:40:48.819Z,97991.94
2023-04-16T22:45:50.101Z,97988.28
2023-04-16T22:50:51.345Z,97995.53
2023-04-16T22:55:52.626Z,97995.72
2023-04-16T23:00:55.776Z,98001.22
2023-04-16T23:05:57.055Z,97993.41
2023-04-16T23:10:58.310Z,97996.03
2023-04-16T23:15:59.615Z,97984.09
2023-04-16T23:21:00.921Z,97989.25
2023-04-16T23:26:02.846Z,97985.97
2023-04-16T23:31:06.655Z,97978.38
2023-04-16T23:36:08.582Z,97976.16
2023-04-16T23:41:09.821Z,97977.78
2023-04-16T23:46:11.365Z,97972.84
2023-04-16T23:51:12.634Z,97970.47
2023-04-16T23:56:15.426Z,97964.66
